createdAt,value
2022-12-25T00:00:21.472Z,78.90
2022-12-25T00:02:54.152Z,78.80
2022-12-25T00:05:22.353Z,78.80
2022-12-25T00:07:50.862Z,78.80
2022-12-25T00:10:19.558Z,78.90
2022-12-25T00:12:47.735Z,78.80
2022-12-25T00:15:15.920Z,79.00
2022-12-25T00:17:44.133Z,79.00
2022-12-25T00:20:13.915Z,79.20
2022-12-25T00:22:42.126Z,79.40
2022-12-25T00:25:11.049Z,79.40
2022-12-25T00:27:39.172Z,79.50
2022-12-25T00:30:08.844Z,79.50
2022-12-25T00:32:37.406Z,79.60
2022-12-25T00:35:06.873Z,79.60
2022-12-25T00:37:36.435Z,79.50
2022-12-25T00:40:05.041Z,79.60
2022-12-25T00:42:33.335Z,79.60
2022-12-25T00:45:01.797Z,79.80
2022-12-25T00:47:30.908Z,79.70
2022-12-25T00:49:59.190Z,79.80
2022-12-25T00:52:27.462Z,79.90
2022-12-25T00:54:56.995Z,79.80
2022-12-25T00:57:25.275Z,79.80
2022-12-25T00:59:53.508Z,79.90
2022-12-25T01:02:24.553Z,79.90
2022-12-25T01:04:54.737Z,80.00
2022-12-25T01:07:24.516Z,79.90
2022-12-25T01:10:24.645Z,80.10
2022-12-25T01:12:54.219Z,80.00
2022-12-25T01:15:22.546Z,79.90
2022-12-25T01:17:50.792Z,80.00
2022-12-25T01:20:19.878Z,79.90
2022-12-25T01:22:48.122Z,80.10
2022-12-25T01:25:16.352Z,80.10
2022-12-25T01:27:44.504Z,80.20
2022-12-25T01:30:14.762Z,80.30
2022-12-25T01:32:42.919Z,80.30
2022-12-25T01:35:12.067Z,80.30
2022-12-25T01:37:40.527Z,80.40
2022-12-25T01:40:09.974Z,80.40
2022-12-25T01:42:38.655Z,80.40
2022-12-25T01:45:43.271Z,80.60
2022-12-25T01:48:15.878Z,80.60
2022-12-25T01:50:47.196Z,80.50
2022-12-25T01:53:15.577Z,80.50
2022-12-25T01:55:45.591Z,80.60
2022-12-25T01:58:14.163Z,80.70
2022-12-25T02:00:43.924Z,80.70
2022-12-25T02:03:12.441Z,80.80
2022-12-25T02:05:40.867Z,80.90
2022-12-25T02:08:12.840Z,81.00
2022-12-25T02:10:43.157Z,81.00
2022-12-25T02:13:12.425Z,81.10
2022-12-25T02:15:53.754Z,81.20
2022-12-25T02:18:34.597Z,81.30
2022-12-25T02:21:45.880Z,81.40
2022-12-25T02:24:47.138Z,81.60
2022-12-25T02:27:23.169Z,81.60
2022-12-25T02:29:56.390Z,81.50
2022-12-25T02:32:29.657Z,81.60
2022-12-25T02:35:02.319Z,81.60
2022-12-25T02:37:36.891Z,81.60
2022-12-25T02:40:11.675Z,81.60
2022-12-25T02:43:10.997Z,81.50
2022-12-25T02:46:05.775Z,81.40
2022-12-25T02:48:55.548Z,81.40
2022-12-25T02:51:44.913Z,81.30
2022-12-25T02:54:34.445Z,81.30
2022-12-25T02:57:26.333Z,81.20
2022-12-25T03:00:15.311Z,81.10
2022-12-25T03:03:04.039Z,81.10
2022-12-25T03:05:53.174Z,81.10
2022-12-25T03:08:25.697Z,81.20
2022-12-25T03:11:18.016Z,81.20
2022-12-25T03:13:49.710Z,81.30
2022-12-25T03:16:35.975Z,81.40
2022-12-25T03:19:25.897Z,81.60
2022-12-25T03:22:13.122Z,81.60
2022-12-25T03:25:10.892Z,81.70
2022-12-25T03:27:40.512Z,81.80
2022-12-25T03:30:27.610Z,81.90
2022-12-25T03:33:23.369Z,82.00
2022-12-25T03:36:04.387Z,82.00
2022-12-25T03:39:08.332Z,82.00
2022-12-25T03:42:01.496Z,82.10
2022-12-25T03:45:10.610Z,82.10
2022-12-25T03:48:03.225Z,82.10
2022-12-25T03:50:53.189Z,82.10
2022-12-25T03:53:42.964Z,82.10
2022-12-25T03:56:30.119Z,82.00
2022-12-25T03:59:23.159Z,81.90
2022-12-25T04:02:10.252Z,81.90
2022-12-25T04:04:57.034Z,81.90
2022-12-25T04:07:43.193Z,81.90
2022-12-25T04:10:45.380Z,81.80
2022-12-25T04:13:31.313Z,81.70
2022-12-25T04:16:17.119Z,81.80
2022-12-25T04:19:17.507Z,81.90
2022-12-25T04:22:03.492Z,82.00
2022-12-25T04:24:45.594Z,82.00
2022-12-25T04:27:32.831Z,82.00
2022-12-25T04:30:23.726Z,81.90
2022-12-25T04:33:09.579Z,81.90
2022-12-25T04:35:55.058Z,81.90
2022-12-25T04:38:24.508Z,81.80
2022-12-25T04:40:52.710Z,81.70
2022-12-25T04:43:24.983Z,81.70
2022-12-25T04:45:54.484Z,81.70
2022-12-25T04:48:22.809Z,81.80
2022-12-25T04:50:51.312Z,81.80
2022-12-25T04:53:19.993Z,81.80
2022-12-25T04:55:48.122Z,81.80
2022-12-25T04:58:16.382Z,81.80
2022-12-25T05:00:45.977Z,81.90
2022-12-25T05:03:14.304Z,81.80
2022-12-25T05:05:42.588Z,81.90
2022-12-25T05:08:11.391Z,81.90
2022-12-25T05:10:41.072Z,81.80
2022-12-25T05:13:09.292Z,81.80
2022-12-25T05:15:40.584Z,81.70
2022-12-25T05:18:11.102Z,81.70
2022-12-25T05:20:40.379Z,81.60
2022-12-25T05:23:10.369Z,81.70
2022-12-25T05:25:40.937Z,81.50
2022-12-25T05:28:09.239Z,81.40
2022-12-25T05:30:37.427Z,81.40
2022-12-25T05:33:05.879Z,81.40
2022-12-25T05:35:37.540Z,81.40
2022-12-25T05:38:06.389Z,81.50
2022-12-25T05:40:35.048Z,81.40
2022-12-25T05:43:03.306Z,81.50
2022-12-25T05:45:32.228Z,81.60
2022-12-25T05:48:00.389Z,81.60
2022-12-25T05:50:28.637Z,81.80
2022-12-25T05:53:01.515Z,81.70
2022-12-25T05:55:34.690Z,81.80
2022-12-25T05:58:03.328Z,81.90
2022-12-25T06:00:32.112Z,81.80
2022-12-25T06:03:00.704Z,81.90
2022-12-25T06:05:29.148Z,81.90
2022-12-25T06:07:58.783Z,81.90
2022-12-25T06:10:27.014Z,81.90
2022-12-25T06:12:55.964Z,81.90
2022-12-25T06:15:24.179Z,81.90
2022-12-25T06:17:52.313Z,81.90
2022-12-25T06:20:20.645Z,81.90
2022-12-25T06:22:48.939Z,81.90
2022-12-25T06:25:18.839Z,82.00
2022-12-25T06:27:47.014Z,82.10
2022-12-25T06:30:15.931Z,82.00
2022-12-25T06:32:44.191Z,82.00
2022-12-25T06:35:12.403Z,82.00
2022-12-25T06:37:40.708Z,82.10
2022-12-25T06:40:09.981Z,82.10
2022-12-25T06:42:39.667Z,82.10
2022-12-25T06:45:08.821Z,82.00
2022-12-25T06:47:38.181Z,82.00
2022-12-25T06:50:07.867Z,82.10
2022-12-25T06:52:36.202Z,82.10
2022-12-25T06:55:04.613Z,82.30
2022-12-25T06:57:33.360Z,82.30
2022-12-25T07:00:03.544Z,82.30
2022-12-25T07:02:34.485Z,82.30
2022-12-25T07:05:04.781Z,82.20
2022-12-25T07:07:33.055Z,82.10
2022-12-25T07:10:01.304Z,82.20
2022-12-25T07:12:29.540Z,82.20
2022-12-25T07:14:57.841Z,82.30
2022-12-25T07:17:27.465Z,82.40
2022-12-25T07:19:56.537Z,82.20
2022-12-25T07:22:25.059Z,82.30
2022-12-25T07:24:53.347Z,82.90
2022-12-25T07:27:21.566Z,82.30
2022-12-25T07:29:50.175Z,82.40
2022-12-25T07:32:18.577Z,82.40
2022-12-25T07:34:48.161Z,82.40
2022-12-25T07:37:16.445Z,82.50
2022-12-25T07:39:44.731Z,82.50
2022-12-25T07:42:12.993Z,82.40
2022-12-25T07:44:41.327Z,82.30
2022-12-25T07:47:09.673Z,82.40
2022-12-25T07:49:38.084Z,82.40
2022-12-25T07:52:07.941Z,82.50
2022-12-25T07:54:36.101Z,82.50
2022-12-25T07:57:04.382Z,82.50
2022-12-25T07:59:32.599Z,82.60
2022-12-25T08:02:01.025Z,82.60
2022-12-25T08:04:29.543Z,82.70
2022-12-25T08:06:57.753Z,82.60
2022-12-25T08:09:27.414Z,82.50
2022-12-25T08:11:55.546Z,82.60
2022-12-25T08:14:23.810Z,82.70
2022-12-25T08:16:52.301Z,83.30
2022-12-25T08:19:20.705Z,82.60
2022-12-25T08:21:48.927Z,82.60
2022-12-25T08:24:17.119Z,82.70
2022-12-25T08:26:46.704Z,83.00
2022-12-25T08:29:15.459Z,83.00
2022-12-25T08:31:46.601Z,83.00
2022-12-25T08:34:15.580Z,83.10
2022-12-25T08:36:43.825Z,83.30
2022-12-25T08:39:12.067Z,83.50
2022-12-25T08:41:40.400Z,83.50
2022-12-25T08:44:12.906Z,83.60
2022-12-25T08:46:41.156Z,83.80
2022-12-25T08:49:09.600Z,83.90
2022-12-25T08:51:39.023Z,83.90
2022-12-25T08:54:07.307Z,84.00
2022-12-25T08:56:36.505Z,84.00
2022-12-25T08:59:04.798Z,84.10
2022-12-25T09:01:34.559Z,84.20
2022-12-25T09:04:02.804Z,84.20
2022-12-25T09:06:31.073Z,84.30
2022-12-25T09:08:59.469Z,84.90
2022-12-25T09:11:27.581Z,84.10
2022-12-25T09:13:55.809Z,83.90
2022-12-25T09:16:24.555Z,83.90
2022-12-25T09:18:54.208Z,84.00
2022-12-25T09:21:22.448Z,84.00
2022-12-25T09:23:50.865Z,84.10
2022-12-25T09:26:20.558Z,84.20
2022-12-25T09:28:52.447Z,84.30
2022-12-25T09:31:22.985Z,84.40
2022-12-25T09:33:52.125Z,84.50
2022-12-25T09:36:23.742Z,84.60
2022-12-25T09:38:52.701Z,84.60
2022-12-25T09:41:28.190Z,84.90
2022-12-25T09:44:01.497Z,84.90
2022-12-25T09:46:37.110Z,85.00
2022-12-25T09:49:11.195Z,85.10
2022-12-25T09:51:45.178Z,85.20
2022-12-25T09:54:19.259Z,85.30
2022-12-25T09:56:47.649Z,85.40
2022-12-25T09:59:24.448Z,85.50
2022-12-25T10:02:05.241Z,85.50
2022-12-25T10:04:51.427Z,85.60
2022-12-25T10:07:29.883Z,85.60
2022-12-25T10:10:07.667Z,85.70
2022-12-25T10:12:46.734Z,85.60
2022-12-25T10:15:36.714Z,85.70
2022-12-25T10:18:36.011Z,85.90
2022-12-25T10:21:12.609Z,86.00
2022-12-25T10:23:47.557Z,86.00
2022-12-25T10:26:17.941Z,86.10
2022-12-25T10:28:48.458Z,86.20
2022-12-25T10:31:21.337Z,86.30
2022-12-25T10:33:50.830Z,86.40
2022-12-25T10:36:20.424Z,86.30
2022-12-25T10:38:50.175Z,86.40
2022-12-25T10:41:30.631Z,86.50
2022-12-25T10:43:59.169Z,86.50
2022-12-25T10:46:29.483Z,86.60
2022-12-25T10:48:59.884Z,86.70
2022-12-25T10:51:31.135Z,86.70
2022-12-25T10:54:02.578Z,86.80
2022-12-25T10:56:31.282Z,86.90
2022-12-25T10:59:06.450Z,87.00
2022-12-25T11:01:34.879Z,87.00
2022-12-25T11:04:04.463Z,87.10
2022-12-25T11:06:34.585Z,87.10
2022-12-25T11:09:04.465Z,87.10
2022-12-25T11:11:32.748Z,87.20
2022-12-25T11:14:02.944Z,87.30
2022-12-25T11:16:33.791Z,87.30
2022-12-25T11:19:02.411Z,87.30
2022-12-25T11:21:33.068Z,87.20
2022-12-25T11:24:04.824Z,87.40
2022-12-25T11:26:37.590Z,87.40
2022-12-25T20:24:16.878Z,80.40
2022-12-25T20:26:47.780Z,82.40
2022-12-25T20:29:16.494Z,84.00
2022-12-25T20:31:44.900Z,84.90
2022-12-25T20:34:13.220Z,85.10
2022-12-25T20:36:41.597Z,84.80
2022-12-25T20:39:12.545Z,84.50
2022-12-25T20:41:42.584Z,84.10
2022-12-25T20:44:10.983Z,83.50
2022-12-25T20:46:39.437Z,83.10
2022-12-25T20:49:07.845Z,82.70
2022-12-25T20:51:36.304Z,82.30
2022-12-25T20:54:08.476Z,81.90
2022-12-25T20:56:37.341Z,81.50
2022-12-25T20:59:07.251Z,81.20
2022-12-25T21:01:35.598Z,80.80
2022-12-25T21:04:04.011Z,80.60
2022-12-25T21:06:32.509Z,80.20
2022-12-25T21:09:00.928Z,80.00
2022-12-25T21:11:31.192Z,79.70
2022-12-25T21:13:59.932Z,79.50
2022-12-25T21:16:30.025Z,79.20
2022-12-25T21:18:58.338Z,79.10
2022-12-25T21:21:26.793Z,78.90
2022-12-25T21:23:57.055Z,78.60
2022-12-25T21:26:27.628Z,78.30
2022-12-25T21:29:00.112Z,78.30
2022-12-25T21:31:31.213Z,78.00
2022-12-25T21:33:59.230Z,77.70
2022-12-25T21:36:29.936Z,77.50
2022-12-25T21:38:59.868Z,77.30
2022-12-25T21:41:29.692Z,77.20
2022-12-25T21:43:58.529Z,77.00
2022-12-25T21:46:27.946Z,76.80
2022-12-25T21:48:58.343Z,76.60
2022-12-25T21:51:46.301Z,76.40
2022-12-25T21:54:15.481Z,76.20
2022-12-25T21:56:47.074Z,76.20
2022-12-25T21:59:16.964Z,76.00
2022-12-25T22:01:45.841Z,75.90
2022-12-25T22:04:16.971Z,75.80
2022-12-25T22:07:03.087Z,75.60
2022-12-25T22:09:31.707Z,75.40
2022-12-25T22:12:18.188Z,75.30
2022-12-25T22:14:55.357Z,75.10
2022-12-25T22:17:44.314Z,74.90
2022-12-25T22:20:16.389Z,74.70
2022-12-25T22:22:45.097Z,74.50
2022-12-25T22:25:14.289Z,74.40
2022-12-25T22:27:43.967Z,74.20
2022-12-25T22:30:15.093Z,73.90
2022-12-25T22:32:43.577Z,73.80
2022-12-25T22:35:13.995Z,73.50
2022-12-25T22:37:42.971Z,73.50
2022-12-25T22:40:13.460Z,73.30
2022-12-25T22:42:42.042Z,73.10
2022-12-25T22:45:11.823Z,73.10
2022-12-25T22:47:40.511Z,72.90
2022-12-25T22:50:10.268Z,72.80
2022-12-25T22:52:40.258Z,72.50
2022-12-25T22:55:10.063Z,72.30
2022-12-25T22:57:38.379Z,72.30
2022-12-25T23:00:08.985Z,72.10
2022-12-25T23:02:37.519Z,72.10
2022-12-25T23:05:06.610Z,71.90
2022-12-25T23:07:34.930Z,71.70
2022-12-25T23:10:05.535Z,71.60
2022-12-25T23:12:51.180Z,71.40
2022-12-25T23:18:55.105Z,71.10
2022-12-25T23:21:41.029Z,71.20
2022-12-25T23:24:28.228Z,71.00
2022-12-25T23:26:57.900Z,71.00
2022-12-25T23:29:37.630Z,71.00
2022-12-25T23:32:07.376Z,70.80
2022-12-25T23:34:38.007Z,70.80
2022-12-25T23:37:06.721Z,70.50
2022-12-25T23:39:35.023Z,70.40
2022-12-25T23:42:05.221Z,70.20
2022-12-25T23:44:33.503Z,70.10
2022-12-25T23:47:01.934Z,70.00
2022-12-25T23:49:30.723Z,70.00
2022-12-25T23:51:58.986Z,69.90
2022-12-25T23:54:28.916Z,69.80
2022-12-25T23:56:58.180Z,69.70
2022-12-25T23:59:29.262Z,69.60
